createdAt,value
2019-04-27T00:00:17.327Z,98551.00
2019-04-27T00:11:06.911Z,98581.00
2019-04-27T00:21:43.031Z,98601.00
2019-04-27T00:32:24.870Z,98621.00
2019-04-27T00:43:09.470Z,98643.00
2019-04-27T00:53:55.112Z,98655.00
2019-04-27T01:04:28.820Z,98673.00
2019-04-27T01:15:13.581Z,98718.00
2019-04-27T01:25:59.396Z,98738.00
2019-04-27T01:36:39.553Z,98768.00
2019-04-27T01:47:24.625Z,98781.00
2019-04-27T01:58:10.674Z,98810.00
2019-04-27T02:08:50.652Z,98843.00
2019-04-27T02:19:32.756Z,98855.00
2019-04-27T02:30:16.420Z,98876.00
2019-04-27T02:40:51.551Z,98912.00
2019-04-27T02:51:34.833Z,98908.00
2019-04-27T03:02:19.653Z,98926.00
2019-04-27T03:13:01.887Z,98927.00
2019-04-27T03:23:43.766Z,98854.00
2019-04-27T03:34:26.540Z,98819.00
2019-04-27T03:45:11.558Z,98791.00
2019-04-27T03:55:52.466Z,98746.00
2019-04-27T04:06:36.466Z,98731.00
2019-04-27T04:17:20.383Z,98731.00
2019-04-27T04:28:02.839Z,98707.00
2019-04-27T04:38:43.757Z,98681.00
2019-04-27T04:49:22.984Z,98680.00
2019-04-27T05:00:06.975Z,98665.00
2019-04-27T05:10:50.945Z,98649.00
2019-04-27T05:21:32.564Z,98616.00
2019-04-27T05:32:15.622Z,98582.00
2019-04-27T05:42:59.886Z,98569.00
2019-04-27T05:53:44.950Z,98561.00
2019-04-27T06:04:29.192Z,98533.00
2019-04-27T06:15:12.672Z,98502.00
2019-04-27T06:26:01.446Z,98495.00
2019-04-27T06:36:41.828Z,98430.00
2019-04-27T06:47:24.574Z,98399.00
2019-04-27T06:58:06.690Z,98370.00
2019-04-27T07:08:51.778Z,98363.00
2019-04-27T07:19:29.726Z,98326.00
2019-04-27T07:30:14.967Z,98312.00
2019-04-27T07:40:58.736Z,98332.00
2019-04-27T07:51:40.630Z,98345.00
2019-04-27T08:02:23.666Z,98325.00
2019-04-27T08:13:15.928Z,98339.00
2019-04-27T08:23:45.724Z,98335.00
2019-04-27T08:34:23.799Z,98269.00
2019-04-27T08:45:07.017Z,98175.00
2019-04-27T08:55:52.792Z,98116.00
2019-04-27T09:06:31.192Z,98075.00
2019-04-27T09:17:14.784Z,98044.00
2019-04-27T09:27:52.881Z,98011.00
2019-04-27T09:38:35.762Z,98008.00
2019-04-27T09:49:17.815Z,97940.00
2019-04-27T09:59:59.096Z,97840.00
2019-04-27T10:10:42.001Z,97828.00
2019-04-27T10:21:23.770Z,97827.00
2019-04-27T10:32:09.032Z,97777.00
2019-04-27T10:42:46.806Z,98141.00
2019-04-27T10:53:19.795Z,98511.00
2019-04-27T11:03:55.523Z,98580.00
2019-04-27T11:14:36.050Z,98586.00
2019-04-27T11:25:17.103Z,98540.00
2019-04-27T11:36:00.089Z,98505.00
2019-04-27T11:46:41.136Z,98522.00
2019-04-27T11:57:24.376Z,98489.00
2019-04-27T12:08:02.767Z,98476.00
2019-04-27T12:18:44.033Z,98392.00
2019-04-27T12:29:24.184Z,98504.00
2019-04-27T12:39:55.516Z,98644.00
2019-04-27T12:50:37.148Z,98562.00
2019-04-27T13:01:20.103Z,98369.00
2019-04-27T13:12:04.005Z,98277.00
2019-04-27T13:22:45.938Z,98172.00
2019-04-27T13:33:30.103Z,98085.00
2019-04-27T13:44:16.032Z,98029.00
2019-04-27T13:54:50.523Z,97984.00
2019-04-27T14:05:31.381Z,97816.00
2019-04-27T14:16:06.346Z,97683.00
2019-04-27T14:26:48.600Z,97643.00
2019-04-27T14:37:28.624Z,97735.00
2019-04-27T14:47:59.900Z,98014.00
2019-04-27T14:58:40.216Z,98360.00
2019-04-27T15:09:18.030Z,98478.00
2019-04-27T15:19:52.735Z,98339.00
2019-04-27T15:30:35.157Z,98047.00
2019-04-27T15:41:08.840Z,98006.00
2019-04-27T15:51:44.347Z,98443.00
2019-04-27T16:02:25.889Z,98517.00
2019-04-27T16:13:07.267Z,98509.00
2019-04-27T16:23:48.074Z,98538.00
2019-04-27T16:34:32.968Z,98615.00
2019-04-27T16:45:09.975Z,98688.00
2019-04-27T16:55:45.118Z,98662.00
2019-04-27T17:06:25.949Z,98641.00
2019-04-27T17:17:10.693Z,98562.00
2019-04-27T17:27:48.138Z,98508.00
2019-04-27T17:38:25.924Z,98554.00
2019-04-27T17:49:04.958Z,98593.00
2019-04-27T17:59:42.377Z,98643.00
2019-04-27T18:10:22.709Z,98645.00
2019-04-27T18:20:55.083Z,98673.00
2019-04-27T18:31:33.999Z,98696.00
2019-04-27T18:42:13.278Z,98722.00
2019-04-27T18:52:47.514Z,98827.00
2019-04-27T19:03:18.422Z,98880.00
2019-04-27T19:13:53.985Z,98912.00
2019-04-27T19:24:32.792Z,98940.00
2019-04-27T19:35:10.338Z,98991.00
2019-04-27T19:45:49.381Z,99008.00
2019-04-27T19:56:28.665Z,99037.00
2019-04-27T20:07:06.111Z,99033.00
2019-04-27T20:17:38.030Z,99039.00
2019-04-27T20:28:12.228Z,99049.00
2019-04-27T20:38:50.936Z,99053.00
2019-04-27T20:49:29.948Z,99077.00
2019-04-27T21:00:06.069Z,99072.00
2019-04-27T21:10:43.039Z,99094.00
2019-04-27T21:21:23.523Z,99109.00
2019-04-27T21:32:02.310Z,99125.00
2019-04-27T21:42:43.430Z,99126.00
2019-04-27T21:53:23.446Z,99138.00
2019-04-27T22:04:04.476Z,99131.00
2019-04-27T22:14:45.736Z,99141.00
2019-04-27T22:25:23.343Z,99153.00
2019-04-27T22:35:56.059Z,99160.00
2019-04-27T22:46:33.072Z,99162.00
2019-04-27T22:57:11.339Z,99170.00
2019-04-27T23:07:52.362Z,99179.00
2019-04-27T23:18:37.452Z,99185.00
2019-04-27T23:29:17.088Z,99192.00
2019-04-27T23:39:53.597Z,99185.00
2019-04-27T23:50:34.149Z,99179.00
